Time;durP1;ratioP1;P1;durP2;ratioP2;P2;SDS_P1;SDS_P2;PMS_P1;PMS_P2;Temp;Humidity;BMP_temperature;BMP_pressure;BME280_temperature;BME280_humidity;BME280_pressure;Samples;Min_cycle;Max_cycle;Signal;HPM_P1;HPM_P2
2022/09/12 00:00:36;;;;;;;6.60;5.00;;;;;;;17.21;92.72;94650.25;5072524;28;20450;-81
2022/09/12 00:03:03;;;;;;;6.20;5.60;;;;;;;17.21;92.62;94660.84;5053403;28;20451;-82
2022/09/12 00:05:31;;;;;;;4.43;4.07;;;;;;;17.11;92.84;94660.25;5072172;28;20460;-81
2022/09/12 00:07:59;;;;;;;5.23;4.83;;;;;;;17.14;92.82;94669.69;5072386;28;20444;-81
2022/09/12 00:10:27;;;;;;;12.53;6.43;;;;;;;17.11;93.22;94664.75;5072189;28;20508;-81
2022/09/12 00:12:54;;;;;;;6.27;5.77;;;;;;;17.09;92.87;94666.75;5072474;28;20440;-81
2022/09/12 00:15:20;;;;;;;6.60;5.37;;;;;;;17.06;93.05;94675.00;5072383;28;20450;-81
2022/09/12 00:17:47;;;;;;;8.50;5.70;;;;;;;17.08;93.37;94673.03;5071991;28;20457;-81
2022/09/12 00:20:16;;;;;;;7.70;5.37;;;;;;;16.96;92.93;94675.25;5072191;28;20445;-81
2022/09/12 00:22:43;;;;;;;6.20;5.70;;;;;;;16.86;93.15;94672.00;5072002;28;20448;-81
2022/09/12 00:25:10;;;;;;;5.67;5.20;;;;;;;16.71;93.76;94672.72;5072217;28;20456;-82
2022/09/12 00:27:38;;;;;;;6.23;5.73;;;;;;;16.68;94.07;94672.25;5072281;28;20535;-81
2022/09/12 00:30:06;;;;;;;5.80;5.30;;;;;;;16.63;94.50;94683.31;5071869;28;20493;-81
2022/09/12 00:32:32;;;;;;;6.90;6.30;;;;;;;16.56;94.01;94682.38;5072024;28;20452;-81
2022/09/12 00:35:01;;;;;;;6.70;6.13;;;;;;;16.58;94.55;94684.84;5072181;28;20823;-81
2022/09/12 00:37:28;;;;;;;6.00;5.50;;;;;;;16.53;94.02;94677.41;5072093;28;20489;-82
2022/09/12 00:39:55;;;;;;;6.27;5.43;;;;;;;16.53;94.75;94680.06;5071951;28;20475;-81
2022/09/12 00:42:22;;;;;;;7.57;6.23;;;;;;;16.54;94.44;94688.84;5071643;28;20458;-81
2022/09/12 00:44:52;;;;;;;5.83;5.33;;;;;;;16.51;94.29;94682.06;5071987;28;20448;-81
2022/09/12 00:47:25;;;;;;;7.27;5.80;;;;;;;16.54;94.55;94681.72;5071776;28;20445;-81
2022/09/12 00:49:58;;;;;;;6.80;6.20;;;;;;;16.52;94.61;94675.75;5071660;28;20488;-81
2022/09/12 00:52:30;;;;;;;13.23;6.00;;;;;;;16.53;93.72;94688.00;5072030;28;20443;-81
2022/09/12 00:55:02;;;;;;;5.90;5.50;;;;;;;16.60;94.36;94683.66;5072212;28;20436;-81
2022/09/12 00:57:33;;;;;;;6.60;6.00;;;;;;;16.67;93.27;94683.84;5071805;28;20444;-81
2022/09/12 01:00:08;;;;;;;6.43;5.90;;;;;;;16.76;92.06;94690.75;5071606;28;20476;-81
2022/09/12 01:02:35;;;;;;;5.93;5.47;;;;;;;16.76;92.33;94682.78;5071637;28;20439;-81
2022/09/12 01:05:02;;;;;;;5.53;5.03;;;;;;;16.84;91.68;94682.78;5052680;28;20961;-81
2022/09/12 01:07:30;;;;;;;5.90;5.40;;;;;;;16.91;91.69;94674.94;5071531;28;20451;-81
2022/09/12 01:09:57;;;;;;;6.07;5.57;;;;;;;17.00;90.80;94674.72;5074433;28;20540;-80
2022/09/12 01:12:24;;;;;;;5.90;5.40;;;;;;;17.00;89.90;94669.41;5075505;28;20450;-81
2022/09/12 01:14:51;;;;;;;5.93;5.43;;;;;;;16.99;89.59;94667.78;5074926;28;20429;-81
2022/09/12 01:17:19;;;;;;;6.67;6.07;;;;;;;17.01;89.06;94659.63;5075328;28;20455;-81
2022/09/12 01:20:12;;;;;;;5.30;4.77;;;;;;;17.07;89.94;94663.44;5074927;28;20453;-80
2022/09/12 01:23:06;;;;;;;5.33;4.93;;;;;;;17.13;89.40;94654.78;5074913;28;20977;-81
2022/09/12 01:25:46;;;;;;;5.00;4.60;;;;;;;17.03;87.40;94652.34;5075096;28;20476;-81
2022/09/12 01:28:38;;;;;;;6.03;5.10;;;;;;;16.92;87.94;94664.16;5074664;28;20452;-80
2022/09/12 01:31:13;;;;;;;5.10;4.70;;;;;;;16.80;87.95;94667.41;5075119;28;20812;-81
2022/09/12 01:33:56;;;;;;;4.97;4.57;;;;;;;16.68;87.82;94670.41;5055954;28;21047;-80
2022/09/12 01:36:34;;;;;;;8.73;3.87;;;;;;;16.56;88.66;94661.19;5074749;28;20447;-81
2022/09/12 01:39:04;;;;;;;7.33;5.50;;;;;;;16.53;89.24;94671.28;5074831;28;20454;-81
2022/09/12 01:41:42;;;;;;;6.50;4.90;;;;;;;16.47;89.26;94664.00;5074593;28;20457;-81
2022/09/12 01:44:17;;;;;;;6.60;4.87;;;;;;;16.43;89.48;94663.53;5074586;28;20444;-81
2022/09/12 01:46:50;;;;;;;4.43;4.10;;;;;;;16.40;90.14;94656.75;5055909;28;20522;-81
2022/09/12 01:49:23;;;;;;;4.93;4.53;;;;;;;16.30;90.10;94650.84;5074665;28;20994;-82
2022/09/12 01:51:58;;;;;;;5.90;5.30;;;;;;;16.34;89.73;94653.97;5074193;28;20457;-80
2022/09/12 01:54:32;;;;;;;5.03;4.57;;;;;;;16.29;90.13;94653.66;5074047;28;20440;-82
2022/09/12 01:57:03;;;;;;;4.60;4.30;;;;;;;16.24;90.11;94651.53;5074591;28;20450;-81
2022/09/12 01:59:35;;;;;;;6.10;4.57;;;;;;;16.24;89.94;94648.88;5074783;28;20450;-80
2022/09/12 02:02:07;;;;;;;5.17;4.77;;;;;;;16.20;90.01;94644.09;5055582;28;20450;-80
2022/09/12 02:04:38;;;;;;;4.10;3.90;;;;;;;16.22;90.11;94645.59;5074001;28;20437;-81
2022/09/12 02:07:10;;;;;;;4.10;3.80;;;;;;;16.26;89.35;94643.41;5038657;28;20444;-81
2022/09/12 02:09:44;;;;;;;6.07;4.33;;;;;;;16.20;89.21;94644.09;5074324;28;20483;-81
2022/09/12 02:12:13;;;;;;;4.90;4.50;;;;;;;16.17;89.52;94639.13;5074167;28;20791;-81
2022/09/12 02:14:45;;;;;;;5.13;4.00;;;;;;;16.09;89.74;94646.09;5073879;28;20824;-82
2022/09/12 02:17:15;;;;;;;5.00;4.00;;;;;;;16.07;89.47;94650.75;5074250;28;20519;-81
2022/09/12 02:19:46;;;;;;;4.37;3.97;;;;;;;16.03;89.96;94660.03;5073595;28;20454;-81
2022/09/12 02:22:17;;;;;;;4.80;4.33;;;;;;;16.03;89.14;94659.19;5073721;28;20984;-81
2022/09/12 02:24:47;;;;;;;4.67;4.30;;;;;;;16.04;89.03;94656.38;5073834;28;20446;-81
2022/09/12 02:27:18;;;;;;;4.10;3.80;;;;;;;16.00;89.31;94660.34;5073889;28;20443;-80
2022/09/12 02:29:45;;;;;;;4.70;4.40;;;;;;;16.01;90.06;94667.31;5073599;28;20519;-81
2022/09/12 02:32:25;;;;;;;6.60;4.37;;;;;;;15.91;90.13;94656.09;5073760;28;20446;-81
2022/09/12 02:34:58;;;;;;;4.63;4.30;;;;;;;16.02;89.74;94658.38;5073846;28;20452;-81
2022/09/12 02:37:43;;;;;;;6.60;4.60;;;;;;;16.05;89.77;94657.19;5073636;28;20448;-80
2022/09/12 02:40:10;;;;;;;4.93;4.40;;;;;;;16.10;89.61;94657.50;5073196;28;20448;-81
2022/09/12 02:42:38;;;;;;;4.27;3.90;;;;;;;16.13;89.38;94666.94;5073413;28;20483;-80
2022/09/12 02:45:06;;;;;;;4.50;4.10;;;;;;;16.13;88.69;94673.06;5073455;28;20451;-80
2022/09/12 02:47:39;;;;;;;4.20;3.90;;;;;;;16.12;88.45;94674.06;5073463;28;20452;-81
2022/09/12 02:50:08;;;;;;;5.40;4.03;;;;;;;16.06;88.50;94664.97;5073187;28;21142;-81
2022/09/12 02:52:35;;;;;;;4.00;3.70;;;;;;;16.01;88.82;94662.00;5073431;28;20481;-81
2022/09/12 02:55:04;;;;;;;7.10;4.10;;;;;;;15.93;88.81;94655.91;5054402;28;20893;-81
2022/09/12 02:57:31;;;;;;;3.87;3.60;;;;;;;15.92;88.15;94663.03;5073289;28;20461;-81
2022/09/12 03:00:01;;;;;;;4.10;3.80;;;;;;;15.93;88.53;94662.03;5073573;28;20441;-80
2022/09/12 03:02:40;;;;;;;6.90;3.67;;;;;;;15.92;88.69;94670.97;5072957;28;20443;-81
2022/09/12 03:05:22;;;;;;;6.33;4.00;;;;;;;15.91;89.01;94674.59;5073402;28;20447;-81
2022/09/12 03:08:08;;;;;;;4.47;3.93;;;;;;;15.99;89.07;94684.34;5073168;28;20443;-81
2022/09/12 03:11:16;;;;;;;4.73;4.33;;;;;;;16.09;89.16;94688.44;5073044;28;20480;-80
2022/09/12 03:13:52;;;;;;;5.30;3.70;;;;;;;16.21;88.89;94688.94;5072712;28;20444;-81
2022/09/12 03:16:28;;;;;;;4.30;3.90;;;;;;;16.28;88.69;94686.44;5054033;28;20443;-80
2022/09/12 03:19:05;;;;;;;5.00;3.87;;;;;;;16.37;88.43;94688.06;5072803;28;20466;-80
2022/09/12 03:21:37;;;;;;;3.70;3.50;;;;;;;16.38;89.12;94682.59;5072779;28;20451;-80
2022/09/12 03:24:14;;;;;;;4.37;3.20;;;;;;;16.36;88.87;94681.09;5072737;28;20519;-81
2022/09/12 03:26:45;;;;;;;4.20;3.50;;;;;;;16.36;89.27;94681.09;5072609;28;20473;-81
2022/09/12 03:29:13;;;;;;;4.33;3.67;;;;;;;16.20;89.07;94687.28;5072554;28;20473;-81
2022/09/12 03:31:50;;;;;;;3.93;3.63;;;;;;;16.22;88.61;94681.81;5072408;28;20489;-82
2022/09/12 03:34:18;;;;;;;5.53;4.33;;;;;;;16.03;88.78;94686.47;5072580;28;20480;-81
2022/09/12 03:36:45;;;;;;;9.03;4.63;;;;;;;15.95;88.91;94683.03;5072334;28;20979;-81
2022/09/12 03:39:13;;;;;;;5.57;5.10;;;;;;;15.88;89.36;94674.09;5053945;28;20439;-81
2022/09/12 03:41:39;;;;;;;5.47;5.07;;;;;;;15.86;89.23;94684.84;5072371;28;20858;-82
2022/09/12 03:44:06;;;;;;;5.73;4.60;;;;;;;15.86;90.31;94682.19;5072764;28;20429;-81
2022/09/12 03:46:33;;;;;;;5.43;4.67;;;;;;;15.83;90.28;94676.41;5072509;28;20441;-80
2022/09/12 03:49:00;;;;;;;5.20;4.80;;;;;;;15.85;89.85;94677.91;5072620;28;20445;-80
2022/09/12 03:51:28;;;;;;;12.73;5.30;;;;;;;15.92;89.60;94678.09;5072461;28;21022;-81
2022/09/12 03:53:55;;;;;;;5.00;4.60;;;;;;;15.84;89.72;94670.97;5072404;28;20473;-81
2022/09/12 03:56:22;;;;;;;5.20;4.70;;;;;;;15.93;89.90;94677.09;5070301;28;20851;-81
2022/09/12 03:58:49;;;;;;;5.30;4.90;;;;;;;15.95;90.08;94677.75;5072218;28;20458;-81
2022/09/12 04:01:18;;;;;;;5.77;5.20;;;;;;;16.00;89.71;94680.69;5053737;28;20458;-81
2022/09/12 04:03:50;;;;;;;5.47;5.07;;;;;;;16.06;88.96;94678.19;5072349;28;20460;-81
2022/09/12 04:06:21;;;;;;;6.60;4.43;;;;;;;16.08;89.06;94672.75;5053195;28;20951;-81
2022/09/12 04:08:51;;;;;;;8.70;4.10;;;;;;;16.14;88.87;94679.16;5072144;28;20438;-80
2022/09/12 04:11:19;;;;;;;6.20;4.07;;;;;;;16.14;89.49;94682.66;5071847;28;20491;-80
2022/09/12 04:13:49;;;;;;;5.33;4.20;;;;;;;16.18;88.94;94691.91;5072351;28;20464;-81
2022/09/12 04:16:17;;;;;;;4.97;3.93;;;;;;;16.17;88.74;94689.41;5072233;28;20450;-81
2022/09/12 04:18:44;;;;;;;4.83;3.30;;;;;;;16.10;89.47;94694.56;5072228;28;20440;-80
2022/09/12 04:21:13;;;;;;;3.93;3.40;;;;;;;16.15;88.91;94694.88;5072303;28;20459;-80
2022/09/12 04:23:40;;;;;;;3.63;3.30;;;;;;;16.42;89.53;94689.19;5071722;28;20962;-81
2022/09/12 04:26:09;;;;;;;5.30;3.80;;;;;;;16.92;87.40;94700.47;5053476;28;20573;-81
2022/09/12 04:28:38;;;;;;;4.53;4.07;;;;;;;17.34;84.22;94697.38;5071774;28;20467;-80
2022/09/12 04:31:06;;;;;;;4.97;3.20;;;;;;;17.68;81.71;94709.47;5071916;28;20484;-80
2022/09/12 04:33:33;;;;;;;3.93;3.30;;;;;;;17.85;80.63;94719.75;5071761;28;20966;-81
2022/09/12 04:36:04;;;;;;;4.90;2.83;;;;;;;17.98;79.66;94723.66;5052899;28;20445;-80
2022/09/12 04:38:31;;;;;;;6.83;4.90;;;;;;;17.93;79.55;94713.56;5071845;28;20440;-80
2022/09/12 04:40:58;;;;;;;4.70;3.17;;;;;;;17.91;79.41;94719.03;5072321;28;20472;-81
2022/09/12 04:43:27;;;;;;;3.90;3.57;;;;;;;17.84;79.25;94714.63;5072202;28;20962;-80
2022/09/12 04:45:53;;;;;;;4.83;2.90;;;;;;;17.86;79.62;94718.75;5075779;28;20587;-80
2022/09/12 04:48:20;;;;;;;3.73;3.43;;;;;;;17.58;80.42;94720.25;5075299;28;20802;-80
2022/09/12 04:50:47;;;;;;;5.50;4.00;;;;;;;17.59;80.03;94712.13;5075589;28;20469;-80
2022/09/12 04:53:14;;;;;;;6.70;4.80;;;;;;;17.58;81.60;94714.97;5075405;28;20440;-80
2022/09/12 04:55:40;;;;;;;5.87;5.37;;;;;;;17.55;81.60;94715.31;5075327;28;20836;-81
2022/09/12 04:58:07;;;;;;;4.67;4.27;;;;;;;17.57;81.73;94716.78;5075731;28;20448;-81
2022/09/12 05:00:35;;;;;;;4.30;3.70;;;;;;;17.79;82.16;94712.50;5075108;28;20444;-80
2022/09/12 05:03:02;;;;;;;4.50;3.27;;;;;;;18.16;80.69;94718.81;5075383;28;20448;-81
2022/09/12 05:05:29;;;;;;;5.10;3.80;;;;;;;18.57;78.82;94720.06;5075150;28;20888;-80
2022/09/12 05:07:56;;;;;;;4.93;3.10;;;;;;;19.13;76.44;94711.63;5075526;28;20436;-81
2022/09/12 05:10:23;;;;;;;3.47;3.20;;;;;;;19.62;74.24;94722.41;5075004;28;20500;-80
2022/09/12 05:12:50;;;;;;;6.93;3.00;;;;;;;20.14;71.33;94723.91;5074968;28;20487;-81
2022/09/12 05:15:16;;;;;;;5.83;3.17;;;;;;;20.61;70.28;94725.09;5074986;28;20477;-81
2022/09/12 05:17:45;;;;;;;4.93;3.50;;;;;;;20.97;67.40;94733.72;5056462;28;20476;-81
2022/09/12 05:20:12;;;;;;;3.97;3.57;;;;;;;21.41;66.40;94726.34;5074992;28;20919;-80
2022/09/12 05:22:39;;;;;;;6.07;3.80;;;;;;;21.74;65.51;94729.94;5074993;28;21016;-80
2022/09/12 05:25:07;;;;;;;4.70;4.30;;;;;;;21.87;63.65;94729.13;5074784;28;20456;-80
2022/09/12 05:27:34;;;;;;;5.77;5.17;;;;;;;21.94;63.57;94727.25;5007192;28;20449;-80
2022/09/12 05:30:01;;;;;;;5.97;4.90;;;;;;;22.07;63.45;94727.31;5075020;28;20469;-80
2022/09/12 05:32:31;;;;;;;5.63;5.10;;;;;;;22.19;63.02;94723.00;5074638;28;20460;-81
2022/09/12 05:35:00;;;;;;;6.00;5.40;;;;;;;22.31;61.84;94719.72;5040130;28;20522;-81
2022/09/12 05:37:27;;;;;;;4.53;4.07;;;;;;;22.13;61.16;94713.13;5041005;28;20525;-80
2022/09/12 05:39:54;;;;;;;7.33;4.60;;;;;;;22.24;60.71;94723.19;5075896;28;20705;-80
2022/09/12 05:42:22;;;;;;;6.00;4.40;;;;;;;22.17;61.35;94706.34;5075862;28;20436;-80
2022/09/12 05:44:49;;;;;;;11.53;6.00;;;;;;;21.99;60.87;94719.50;5075614;28;20947;-80
2022/09/12 05:47:16;;;;;;;4.90;4.50;;;;;;;22.02;61.96;94712.91;5075999;28;20436;-83
2022/09/12 05:53:07;;;;;;;5.40;4.40;;;;;;;21.21;63.93;94708.38;5060891;28;20848;-80
2022/09/12 05:55:34;;;;;;;5.97;4.90;;;;;;;21.22;63.98;94710.03;5054452;28;20455;-79
2022/09/12 05:58:01;;;;;;;6.30;5.40;;;;;;;21.14;65.18;94702.19;5055534;28;20819;-79
2022/09/12 06:00:27;;;;;;;6.23;4.93;;;;;;;21.16;64.61;94702.00;5055540;28;20772;-80
2022/09/12 06:02:54;;;;;;;5.27;4.77;;;;;;;21.18;63.70;94691.94;5055437;28;20483;-80
2022/09/12 06:05:21;;;;;;;6.70;4.90;;;;;;;21.15;63.71;94687.00;5055790;28;20442;-81
2022/09/12 06:07:48;;;;;;;5.23;4.73;;;;;;;21.09;63.99;94687.78;5055161;28;20457;-79
2022/09/12 06:10:17;;;;;;;7.80;5.10;;;;;;;21.24;63.43;94685.84;5053996;28;20442;-80
2022/09/12 06:12:44;;;;;;;5.63;5.10;;;;;;;21.23;63.91;94676.16;5054336;28;20445;-80
2022/09/12 06:15:11;;;;;;;5.63;5.23;;;;;;;21.43;62.92;94694.94;5053800;28;20452;-80
2022/09/12 06:17:37;;;;;;;8.30;5.10;;;;;;;21.30;63.54;94685.03;5053796;28;20844;-80
2022/09/12 06:20:05;;;;;;;5.13;4.73;;;;;;;21.37;63.15;94685.03;5053681;28;20446;-80
2022/09/12 06:22:33;;;;;;;4.70;4.40;;;;;;;21.49;62.68;94673.59;5053773;28;20545;-80
2022/09/12 06:25:00;;;;;;;5.90;5.50;;;;;;;21.47;62.62;94680.16;5053778;28;21152;-80
2022/09/12 06:27:28;;;;;;;6.10;5.60;;;;;;;21.50;62.67;94677.06;5053921;28;20446;-80
2022/09/12 06:29:55;;;;;;;9.33;8.03;;;;;;;21.61;62.59;94676.47;5053748;28;20469;-80
2022/09/12 06:32:22;;;;;;;6.07;5.57;;;;;;;21.72;61.70;94680.41;5053463;28;20481;-79
2022/09/12 06:34:49;;;;;;;5.70;5.20;;;;;;;21.82;61.11;94692.31;5053427;28;20456;-81
2022/09/12 06:37:18;;;;;;;5.97;4.90;;;;;;;21.72;60.79;94688.41;5053353;28;20828;-80
2022/09/12 06:39:45;;;;;;;4.60;4.20;;;;;;;21.60;61.98;94697.00;5053598;28;20449;-81
2022/09/12 06:42:13;;;;;;;9.13;5.20;;;;;;;21.41;62.28;94697.81;5053806;28;20441;-80
2022/09/12 06:44:41;;;;;;;5.70;5.30;;;;;;;21.31;62.69;94700.00;5053569;28;20433;-80
2022/09/12 06:47:08;;;;;;;5.73;5.33;;;;;;;21.58;63.79;94704.41;5053054;28;20457;-80
2022/09/12 06:49:35;;;;;;;6.50;5.90;;;;;;;21.75;62.25;94702.19;5018201;28;20446;-80
2022/09/12 06:52:02;;;;;;;6.10;5.10;;;;;;;21.86;62.14;94698.09;5053393;28;20492;-80
2022/09/12 06:54:29;;;;;;;7.07;6.40;;;;;;;21.61;62.18;94708.50;5053521;28;20441;-80
2022/09/12 06:56:56;;;;;;;6.10;5.60;;;;;;;21.57;62.80;94704.59;5053316;28;20511;-80
2022/09/12 06:59:23;;;;;;;9.47;7.10;;;;;;;21.35;62.92;94711.94;5018021;28;20483;-81
2022/09/12 07:01:51;;;;;;;6.63;6.03;;;;;;;21.41;63.33;94703.16;5053112;28;20452;-80
2022/09/12 07:04:18;;;;;;;6.60;5.97;;;;;;;21.47;63.32;94718.34;5053111;28;20445;-80
2022/09/12 07:06:46;;;;;;;8.60;5.87;;;;;;;21.45;62.54;94723.06;5053049;28;20450;-80
2022/09/12 07:09:16;;;;;;;6.90;6.40;;;;;;;21.48;63.27;94719.19;5052952;28;20945;-80
2022/09/12 07:11:44;;;;;;;6.17;5.77;;;;;;;21.39;63.82;94723.84;5053027;28;20477;-80
2022/09/12 07:14:12;;;;;;;7.20;6.20;;;;;;;21.25;63.86;94722.19;5052718;28;20827;-80
2022/09/12 07:16:39;;;;;;;6.77;6.20;;;;;;;21.43;64.89;94725.13;5052923;28;20860;-80
2022/09/12 07:19:08;;;;;;;6.27;5.80;;;;;;;21.46;64.34;94735.41;5017523;28;20445;-80
2022/09/12 07:21:38;;;;;;;16.03;7.50;;;;;;;21.25;63.76;94731.00;5018405;28;20473;-80
2022/09/12 07:24:07;;;;;;;7.50;6.80;;;;;;;20.85;64.36;94729.97;5052899;28;20446;-80
2022/09/12 07:26:34;;;;;;;7.70;6.90;;;;;;;20.90;65.03;94730.19;5050739;28;20537;-80
2022/09/12 07:29:01;;;;;;;7.43;6.83;;;;;;;21.04;64.61;94723.91;5052563;28;20485;-79
2022/09/12 07:31:28;;;;;;;5.90;5.33;;;;;;;21.16;64.20;94732.19;5052726;28;20488;-80
2022/09/12 07:33:55;;;;;;;8.30;5.83;;;;;;;21.37;64.05;94733.09;5050680;28;20449;-80
2022/09/12 07:36:25;;;;;;;5.83;5.43;;;;;;;21.49;62.92;94726.16;5052897;28;20445;-80
2022/09/12 07:38:55;;;;;;;6.40;5.27;;;;;;;21.27;61.76;94738.81;5052631;28;20856;-81
2022/09/12 07:41:24;;;;;;;6.07;5.57;;;;;;;21.12;62.39;94727.44;5052587;28;20453;-80
2022/09/12 07:43:53;;;;;;;5.73;5.30;;;;;;;21.20;62.11;94729.94;5052433;28;20441;-79
2022/09/12 07:46:21;;;;;;;6.10;5.43;;;;;;;21.32;61.33;94731.84;5052461;28;20874;-79
2022/09/12 07:48:51;;;;;;;6.97;6.40;;;;;;;21.54;61.69;94740.56;5052718;28;20456;-80
2022/09/12 07:51:19;;;;;;;6.60;6.10;;;;;;;21.75;60.64;94728.06;5052474;28;21018;-79
2022/09/12 07:53:48;;;;;;;6.97;6.27;;;;;;;21.73;59.74;94724.78;5052192;28;20442;-80
2022/09/12 07:56:15;;;;;;;7.00;6.17;;;;;;;21.80;60.32;94725.63;5052466;28;20441;-80
2022/09/12 07:58:43;;;;;;;6.33;5.83;;;;;;;21.79;59.29;94722.13;5052541;28;20479;-80
2022/09/12 08:01:12;;;;;;;6.60;6.00;;;;;;;21.68;59.10;94724.53;5017669;28;20450;-81
2022/09/12 08:03:39;;;;;;;6.60;6.00;;;;;;;21.75;59.00;94728.91;5052339;28;20452;-80
2022/09/12 08:06:08;;;;;;;7.73;6.93;;;;;;;21.80;59.16;94726.44;5052289;28;20449;-80
2022/09/12 08:08:36;;;;;;;6.83;6.30;;;;;;;21.92;58.10;94732.00;5052465;28;20449;-80
2022/09/12 08:11:07;;;;;;;7.50;5.70;;;;;;;21.68;58.20;94725.38;5052139;28;20988;-80
2022/09/12 08:13:35;;;;;;;6.80;6.30;;;;;;;21.48;58.01;94724.50;5052121;28;20821;-80
2022/09/12 08:16:04;;;;;;;6.90;6.10;;;;;;;21.11;59.08;94721.28;5052117;28;20460;-80
2022/09/12 08:18:32;;;;;;;7.87;6.70;;;;;;;21.23;60.60;94730.38;5018649;28;20492;-80
2022/09/12 08:21:00;;;;;;;5.70;5.27;;;;;;;21.34;59.62;94734.31;5037640;28;20465;-80
2022/09/12 08:23:28;;;;;;;7.10;6.33;;;;;;;21.34;58.83;94731.66;5056043;28;20445;-80
2022/09/12 08:25:56;;;;;;;5.30;4.90;;;;;;;21.04;59.34;94728.41;5056407;28;20450;-79
2022/09/12 08:28:25;;;;;;;6.37;5.70;;;;;;;21.29;60.42;94728.75;5037192;28;21055;-80
2022/09/12 08:30:52;;;;;;;6.90;6.30;;;;;;;21.41;60.18;94724.50;5056269;28;20791;-80
2022/09/12 08:33:19;;;;;;;6.80;5.70;;;;;;;21.67;59.47;94729.06;5056065;28;20452;-81
2022/09/12 08:35:47;;;;;;;5.60;5.10;;;;;;;21.86;58.43;94722.13;5020602;28;20450;-79
2022/09/12 08:38:14;;;;;;;5.40;5.00;;;;;;;21.93;58.85;94728.28;5056101;28;20811;-80
2022/09/12 08:40:50;;;;;;;5.40;5.00;;;;;;;21.80;58.23;94729.09;5055874;28;20845;-80
2022/09/12 08:43:33;;;;;;;4.53;4.13;;;;;;;21.85;58.30;94728.50;5056025;28;20453;-80
2022/09/12 08:46:07;;;;;;;5.27;4.87;;;;;;;21.86;58.18;94719.44;5055796;28;20952;-80
2022/09/12 08:48:35;;;;;;;4.67;4.37;;;;;;;22.02;59.00;94726.28;5055840;28;20475;-80
2022/09/12 08:51:03;;;;;;;5.33;4.83;;;;;;;22.05;58.57;94718.69;5055745;28;21016;-80
2022/09/12 08:53:34;;;;;;;4.77;4.43;;;;;;;21.85;58.73;94723.16;5055834;28;20441;-80
2022/09/12 08:56:04;;;;;;;6.17;5.67;;;;;;;21.64;59.67;94722.28;5055675;28;20503;-80
2022/09/12 08:58:39;;;;;;;5.53;5.00;;;;;;;21.42;59.79;94723.47;5056077;28;20430;-79
2022/09/12 09:01:11;;;;;;;7.07;6.40;;;;;;;21.20;61.39;94708.56;5055695;28;20453;-80
2022/09/12 09:04:01;;;;;;;6.43;5.80;;;;;;;20.93;61.80;94713.81;5055474;28;20445;-79
2022/09/12 09:06:46;;;;;;;4.80;4.40;;;;;;;20.92;61.22;94708.66;5055050;28;20446;-80
2022/09/12 09:09:32;;;;;;;6.27;5.67;;;;;;;20.94;60.84;94707.44;5055482;28;20449;-80
2022/09/12 09:12:07;;;;;;;5.50;5.10;;;;;;;20.81;60.93;94707.34;5055223;28;20833;-80
2022/09/12 09:15:10;;;;;;;5.10;4.70;;;;;;;20.96;60.90;94708.06;5055201;28;20445;-79
2022/09/12 09:17:42;;;;;;;6.00;5.60;;;;;;;21.30;59.65;94695.69;5013034;28;20451;-81
2022/09/12 09:20:17;;;;;;;4.93;4.63;;;;;;;21.46;58.46;94698.03;4964176;28;20620;-80
2022/09/12 09:22:48;;;;;;;6.27;5.67;;;;;;;21.64;57.49;94697.44;5013254;28;20455;-81
2022/09/12 09:25:20;;;;;;;6.10;5.50;;;;;;;21.65;57.17;94693.72;5012856;28;20451;-81
2022/09/12 09:27:53;;;;;;;5.23;4.83;;;;;;;21.92;58.15;94697.25;5012785;28;20522;-80
2022/09/12 09:30:21;;;;;;;5.57;4.93;;;;;;;21.99;57.08;94690.09;5012473;28;20472;-81
2022/09/12 09:32:54;;;;;;;4.90;4.50;;;;;;;22.02;56.51;94688.84;5012976;28;20490;-80
2022/09/12 09:35:29;;;;;;;6.43;4.57;;;;;;;21.98;56.08;94693.78;5012932;28;20447;-80
2022/09/12 09:38:02;;;;;;;6.27;5.77;;;;;;;22.01;56.87;94696.06;5012890;28;20963;-80
2022/09/12 09:40:38;;;;;;;6.90;6.07;;;;;;;22.18;57.16;94689.28;5012683;28;20447;-81
2022/09/12 09:43:14;;;;;;;6.10;5.50;;;;;;;22.20;56.02;94679.19;5012845;28;20958;-80
2022/09/12 09:45:41;;;;;;;5.40;5.00;;;;;;;22.13;56.72;94674.91;5012564;28;20454;-81
2022/09/12 09:48:17;;;;;;;6.00;5.50;;;;;;;21.94;55.36;94681.84;5012601;28;20448;-81
2022/09/12 09:50:46;;;;;;;5.47;5.07;;;;;;;21.94;56.97;94673.81;5012789;28;20439;-80
2022/09/12 09:53:33;;;;;;;5.03;4.60;;;;;;;22.13;56.40;94683.75;4979694;28;20696;-80
2022/09/12 09:56:05;;;;;;;5.73;5.33;;;;;;;22.17;55.12;94681.47;5054361;28;20945;-80
2022/09/12 09:58:34;;;;;;;6.23;5.67;;;;;;;22.15;56.50;94680.84;5054316;28;20528;-80
2022/09/12 10:01:02;;;;;;;8.77;5.40;;;;;;;22.13;55.87;94658.88;5054294;28;20438;-80
2022/09/12 10:03:34;;;;;;;5.63;5.23;;;;;;;21.96;55.88;94671.78;5053909;28;20430;-81
2022/09/12 10:06:02;;;;;;;5.63;5.23;;;;;;;21.92;56.33;94657.19;5054330;28;20454;-81
2022/09/12 10:08:32;;;;;;;6.47;5.87;;;;;;;22.13;57.11;94664.22;5054171;28;20441;-80
2022/09/12 10:11:02;;;;;;;5.20;4.80;;;;;;;22.19;55.91;94677.56;5054180;28;20477;-80
2022/09/12 10:13:39;;;;;;;5.83;5.43;;;;;;;22.27;55.34;94673.88;5053731;28;20488;-81
2022/09/12 10:16:18;;;;;;;5.57;5.17;;;;;;;22.21;54.06;94664.81;5054373;28;20994;-80
2022/09/12 10:18:46;;;;;;;5.97;5.47;;;;;;;22.27;55.76;94681.06;5054176;28;20473;-81
2022/09/12 10:21:31;;;;;;;5.83;5.30;;;;;;;22.18;54.74;94670.56;5053964;28;20438;-80
2022/09/12 10:24:16;;;;;;;4.60;4.30;;;;;;;22.08;54.06;94664.00;5011514;28;20455;-80
2022/09/12 10:26:48;;;;;;;5.20;4.80;;;;;;;21.94;53.82;94671.97;5011711;28;20451;-80
2022/09/12 10:29:18;;;;;;;5.93;5.53;;;;;;;22.02;56.11;94679.00;5011367;28;20901;-81
2022/09/12 10:31:50;;;;;;;5.60;5.20;;;;;;;21.92;54.85;94675.88;5011810;28;20494;-80
2022/09/12 10:34:34;;;;;;;5.63;5.23;;;;;;;21.88;54.54;94666.63;5011568;28;20443;-80
2022/09/12 10:37:06;;;;;;;6.30;5.83;;;;;;;21.99;55.75;94666.03;5011534;28;20474;-80
2022/09/12 10:39:35;;;;;;;6.30;5.80;;;;;;;21.98;56.54;94680.44;5011668;28;20943;-80
2022/09/12 10:42:03;;;;;;;7.10;6.50;;;;;;;21.94;55.25;94676.50;5010930;28;20919;-80
2022/09/12 10:44:32;;;;;;;7.40;6.80;;;;;;;21.95;56.62;94667.47;5011434;28;20439;-80
2022/09/12 10:47:01;;;;;;;8.80;6.97;;;;;;;22.08;55.99;94662.16;5011450;28;20444;-81
2022/09/12 10:49:30;;;;;;;7.20;6.60;;;;;;;21.93;55.19;94674.84;4978674;28;20490;-80
2022/09/12 10:52:16;;;;;;;6.87;6.27;;;;;;;21.79;56.46;94679.38;5011321;28;20514;-80
2022/09/12 10:54:43;;;;;;;6.83;6.07;;;;;;;21.74;56.65;94670.34;5011247;28;20518;-80
2022/09/12 10:57:40;;;;;;;6.50;5.90;;;;;;;21.81;57.46;94665.81;5011266;28;20493;-80
2022/09/12 11:00:16;;;;;;;7.00;6.40;;;;;;;21.78;55.79;94671.56;5013002;28;20894;-81
2022/09/12 11:03:01;;;;;;;6.50;5.10;;;;;;;21.77;54.79;94669.94;5053396;28;20426;-80
2022/09/12 11:05:53;;;;;;;5.53;5.10;;;;;;;21.86;53.38;94666.84;5053475;28;20442;-80
2022/09/12 11:08:40;;;;;;;5.50;5.00;;;;;;;21.93;54.59;94661.50;5053179;28;20460;-80
2022/09/12 11:11:22;;;;;;;5.87;5.37;;;;;;;21.77;53.38;94659.25;5052876;28;20454;-80
2022/09/12 11:14:00;;;;;;;4.90;4.50;;;;;;;21.74;53.66;94659.66;5052887;28;20481;-81
2022/09/12 11:16:33;;;;;;;6.70;6.20;;;;;;;21.77;54.97;94664.59;5052994;28;20493;-80
2022/09/12 11:19:24;;;;;;;6.37;5.83;;;;;;;21.75;55.51;94647.94;5052936;28;20534;-80
2022/09/12 11:22:14;;;;;;;6.37;5.87;;;;;;;21.86;55.12;94650.00;5053115;28;20531;-79
2022/09/12 11:25:00;;;;;;;25.17;6.50;;;;;;;21.87;55.15;94656.97;5052660;28;20441;-81
2022/09/12 11:28:00;;;;;;;8.40;6.50;;;;;;;22.05;55.40;94648.38;5052949;28;20450;-81
2022/09/12 11:30:36;;;;;;;9.13;6.30;;;;;;;22.18;55.57;94651.03;5052500;28;20481;-80
2022/09/12 11:33:24;;;;;;;6.40;5.90;;;;;;;22.02;54.84;94648.78;5052459;28;20489;-80
2022/09/12 11:35:52;;;;;;;9.93;6.17;;;;;;;21.92;54.30;94644.66;5052698;28;20442;-79
2022/09/12 11:38:47;;;;;;;5.87;5.47;;;;;;;21.83;54.58;94655.75;5052573;28;20445;-80
2022/09/12 11:41:21;;;;;;;10.27;5.63;;;;;;;21.89;55.43;94644.25;5052382;28;20442;-80
2022/09/12 11:43:53;;;;;;;6.67;6.07;;;;;;;21.97;55.67;94649.38;5052616;28;20457;-80
2022/09/12 11:46:26;;;;;;;4.27;3.97;;;;;;;21.92;52.09;94646.50;5052722;28;20434;-80
2022/09/12 11:48:57;;;;;;;5.30;4.90;;;;;;;21.81;52.79;94639.94;5052406;28;20449;-80
2022/09/12 11:51:28;;;;;;;6.27;5.77;;;;;;;21.79;55.39;94651.84;5052761;28;20440;-79
2022/09/12 11:54:09;;;;;;;6.80;4.83;;;;;;;21.61;53.66;94650.59;5051264;28;20489;-80
2022/09/12 11:56:42;;;;;;;7.53;6.70;;;;;;;21.55;55.86;94655.94;5052478;28;20450;-80